createdAt,value
2019-03-15T00:00:48.337Z,95601.61
2019-03-15T00:04:50.232Z,95598.00
2019-03-15T00:08:52.133Z,95609.43
2019-03-15T00:12:54.047Z,95599.38
2019-03-15T00:16:55.956Z,95618.92
2019-03-15T00:20:57.854Z,95609.48
2019-03-15T00:24:59.754Z,95617.24
2019-03-15T00:29:01.816Z,95634.55
2019-03-15T00:33:03.696Z,95651.55
2019-03-15T00:37:05.606Z,95650.23
2019-03-15T00:41:07.859Z,95664.27
2019-03-15T00:45:11.564Z,95655.86
2019-03-15T00:49:13.561Z,95659.05
2019-03-15T00:53:15.451Z,95656.39
2019-03-15T00:57:17.355Z,95655.86
2019-03-15T01:01:20.494Z,95659.33
2019-03-15T01:05:22.488Z,95660.34
2019-03-15T01:09:24.390Z,95652.47
2019-03-15T01:13:26.319Z,95659.03
2019-03-15T01:17:28.208Z,95665.93
2019-03-15T01:21:30.108Z,95666.50
2019-03-15T01:25:31.989Z,95669.90
2019-03-15T01:29:34.907Z,95669.59
2019-03-15T01:33:36.800Z,95678.51
2019-03-15T01:37:38.695Z,95676.97
2019-03-15T01:41:40.605Z,95678.95
2019-03-15T01:45:43.457Z,95686.91
2019-03-15T01:49:45.499Z,95692.83
2019-03-15T01:53:48.421Z,95711.63
2019-03-15T01:57:50.438Z,95719.95
2019-03-15T02:01:52.352Z,95716.72
2019-03-15T02:05:54.252Z,95718.19
2019-03-15T02:09:56.201Z,95719.23
2019-03-15T02:13:58.085Z,95733.66
2019-03-15T02:17:59.997Z,95736.14
2019-03-15T02:22:01.904Z,95749.38
2019-03-15T02:26:03.913Z,95753.61
2019-03-15T02:30:10.317Z,95756.23
2019-03-15T02:34:12.233Z,95762.21
2019-03-15T02:38:14.111Z,95765.26
2019-03-15T02:42:16.005Z,95772.19
2019-03-15T02:46:17.908Z,95775.59
2019-03-15T02:50:19.811Z,95779.39
2019-03-15T02:54:21.710Z,95780.98
2019-03-15T02:58:23.615Z,95786.53
2019-03-15T03:02:25.510Z,95787.62
2019-03-15T03:06:28.085Z,95785.50
2019-03-15T03:10:30.379Z,95786.11
2019-03-15T03:14:32.278Z,95784.06
2019-03-15T03:18:34.976Z,95781.88
2019-03-15T03:22:36.881Z,95786.53
2019-03-15T03:26:40.117Z,95786.69
2019-03-15T03:30:42.649Z,95801.37
2019-03-15T03:34:45.906Z,95800.14
2019-03-15T03:38:47.817Z,95807.94
2019-03-15T03:42:49.740Z,95811.29
2019-03-15T03:46:52.481Z,95808.83
2019-03-15T03:50:54.638Z,95807.59
2019-03-15T03:54:57.647Z,95816.11
2019-03-15T03:58:59.606Z,95809.98
2019-03-15T04:03:01.682Z,95816.19
2019-03-15T04:07:03.725Z,95811.88
2019-03-15T04:11:05.638Z,95814.49
2019-03-15T04:15:10.513Z,95817.70
2019-03-15T04:19:12.423Z,95835.20
2019-03-15T04:23:14.342Z,95835.62
2019-03-15T04:27:16.245Z,95844.57
2019-03-15T04:31:18.169Z,95852.08
2019-03-15T04:35:20.065Z,95848.81
2019-03-15T04:39:22.188Z,95854.86
2019-03-15T04:43:24.084Z,95848.00
2019-03-15T04:47:26.230Z,95847.78
2019-03-15T04:51:28.136Z,95849.74
2019-03-15T04:55:30.333Z,95844.00
2019-03-15T04:59:32.809Z,95839.33
2019-03-15T05:03:35.033Z,95847.43
2019-03-15T05:07:37.095Z,95839.64
2019-03-15T05:11:38.919Z,95840.59
2019-03-15T05:15:40.847Z,95835.35
2019-03-15T05:19:42.725Z,95833.30
2019-03-15T05:24:03.707Z,95832.85
2019-03-15T05:28:05.788Z,95821.78
2019-03-15T05:32:07.703Z,95837.16
2019-03-15T05:36:09.588Z,95841.52
2019-03-15T05:40:11.660Z,95829.80
2019-03-15T05:44:13.567Z,95840.59
2019-03-15T05:48:15.467Z,95843.56
2019-03-15T05:52:17.536Z,95841.52
2019-03-15T05:56:19.431Z,95846.48
2019-03-15T06:00:21.343Z,95852.73
2019-03-15T06:04:23.256Z,95848.14
2019-03-15T06:08:27.567Z,95848.59
2019-03-15T06:12:28.769Z,95853.75
2019-03-15T06:16:30.664Z,95848.85
2019-03-15T06:20:32.586Z,95842.13
2019-03-15T06:24:35.142Z,95847.39
2019-03-15T06:28:37.122Z,95840.97
2019-03-15T06:32:39.171Z,95835.36
2019-03-15T06:36:41.075Z,95850.14
2019-03-15T06:40:42.986Z,95848.23
2019-03-15T06:44:57.040Z,95869.59
2019-03-15T06:48:48.548Z,95878.26
2019-03-15T06:52:50.461Z,95889.61
2019-03-15T06:56:52.352Z,95897.36
2019-03-15T07:00:54.946Z,95904.77
2019-03-15T07:04:58.009Z,95891.13
2019-03-15T07:08:59.920Z,95887.09
2019-03-15T07:13:01.832Z,95874.39
2019-03-15T07:17:03.730Z,95886.76
2019-03-15T07:21:05.637Z,95884.53
2019-03-15T07:25:10.020Z,95881.49
2019-03-15T07:29:13.542Z,95869.73
2019-03-15T07:33:15.457Z,95881.39
2019-03-15T07:37:17.345Z,95886.27
2019-03-15T07:41:19.251Z,95868.88
2019-03-15T07:45:21.193Z,95865.33
2019-03-15T07:49:23.084Z,95868.66
2019-03-15T07:53:25.008Z,95877.98
2019-03-15T07:57:26.915Z,95862.45
2019-03-15T08:01:28.827Z,95874.05
2019-03-15T08:05:31.825Z,95864.27
2019-03-15T08:09:33.742Z,95864.52
2019-03-15T08:13:35.656Z,95864.22
2019-03-15T08:17:37.593Z,95861.28
2019-03-15T08:21:39.492Z,95868.84
2019-03-15T08:25:42.477Z,95864.06
2019-03-15T08:29:44.373Z,95869.39
2019-03-15T08:33:46.289Z,95866.38
2019-03-15T08:37:48.385Z,95873.41
2019-03-15T08:41:50.287Z,95865.27
2019-03-15T08:45:52.346Z,95873.12
2019-03-15T08:49:54.319Z,95875.88
2019-03-15T08:53:56.240Z,95882.57
2019-03-15T08:57:58.137Z,95878.86
2019-03-15T09:02:00.037Z,95892.18
2019-03-15T09:06:01.954Z,95899.83
2019-03-15T09:10:05.198Z,95897.05
2019-03-15T09:14:07.206Z,95903.59
2019-03-15T09:18:09.145Z,95898.33
2019-03-15T09:22:11.127Z,95901.88
2019-03-15T09:26:13.071Z,95902.31
2019-03-15T09:30:23.736Z,95897.05
2019-03-15T09:34:22.520Z,95884.84
2019-03-15T09:38:24.400Z,95879.84
2019-03-15T09:42:26.320Z,95886.01
2019-03-15T09:46:28.220Z,95875.33
2019-03-15T09:50:40.069Z,95869.39
2019-03-15T09:54:33.770Z,95865.23
2019-03-15T09:58:35.760Z,95866.65
2019-03-15T10:02:37.666Z,95859.50
2019-03-15T10:06:39.569Z,95859.16
2019-03-15T10:14:49.582Z,95846.98
2019-03-15T10:18:51.492Z,95834.08
2019-03-15T10:23:05.488Z,95833.72
2019-03-15T10:26:57.020Z,95837.85
2019-03-15T10:30:58.930Z,95833.91
2019-03-15T10:35:01.670Z,95835.80
2019-03-15T10:39:03.866Z,95832.48
2019-03-15T10:43:05.746Z,95824.13
2019-03-15T10:47:07.699Z,95817.32
2019-03-15T10:51:09.646Z,95817.95
2019-03-15T10:55:11.792Z,95815.92
2019-03-15T10:59:13.693Z,95815.18
2019-03-15T11:03:15.592Z,95812.11
2019-03-15T11:07:17.492Z,95818.25
2019-03-15T11:11:19.387Z,95808.31
2019-03-15T11:15:21.336Z,95791.89
2019-03-15T11:19:23.238Z,95721.75
2019-03-15T11:23:25.130Z,95795.54
2019-03-15T11:27:27.034Z,95789.03
2019-03-15T11:31:28.937Z,95788.58
2019-03-15T11:35:49.249Z,95778.36
2019-03-15T11:40:09.376Z,95767.42
2019-03-15T11:44:11.605Z,95754.95
2019-03-15T11:48:13.491Z,95747.95
2019-03-15T11:52:15.393Z,95744.39
2019-03-15T11:56:26.887Z,95748.21
2019-03-15T12:00:21.528Z,95740.63
2019-03-15T12:04:23.428Z,95732.61
2019-03-15T12:08:25.416Z,95726.70
2019-03-15T12:12:27.320Z,95720.59
2019-03-15T12:16:29.244Z,95710.45
2019-03-15T12:20:31.143Z,95709.47
2019-03-15T12:24:33.070Z,95704.60
2019-03-15T12:28:35.451Z,95708.91
2019-03-15T12:32:37.448Z,95708.15
2019-03-15T12:36:39.339Z,95705.92
2019-03-15T12:40:41.251Z,95703.66
2019-03-15T12:44:43.140Z,95700.27
2019-03-15T12:48:45.038Z,95690.25
2019-03-15T12:52:48.532Z,95685.99
2019-03-15T12:56:53.992Z,95688.45
2019-03-15T13:00:54.221Z,95693.72
2019-03-15T13:04:56.112Z,95682.73
2019-03-15T13:08:58.013Z,95674.25
2019-03-15T13:12:59.914Z,95678.20
2019-03-15T13:17:01.834Z,95684.88
2019-03-15T13:21:03.737Z,95681.13
2019-03-15T13:25:09.405Z,95675.70
2019-03-15T13:29:11.304Z,95674.70
2019-03-15T13:33:20.442Z,95679.28
2019-03-15T13:37:16.808Z,95673.16
2019-03-15T13:41:18.705Z,95673.08
2019-03-15T13:45:20.606Z,95679.53
2019-03-15T13:49:22.519Z,95679.75
2019-03-15T13:53:24.407Z,95660.53
2019-03-15T13:57:26.303Z,95675.73
2019-03-15T14:01:28.211Z,95666.08
2019-03-15T14:05:30.099Z,95663.48
2019-03-15T14:09:32.008Z,95660.25
2019-03-15T14:13:33.900Z,95646.88
2019-03-15T14:17:35.876Z,95642.03
2019-03-15T14:21:37.786Z,95630.57
2019-03-15T14:25:39.682Z,95626.67
2019-03-15T14:29:41.652Z,95650.06
2019-03-15T14:33:43.617Z,95644.81
2019-03-15T14:37:45.767Z,95633.77
2019-03-15T14:41:47.851Z,95635.69
2019-03-15T14:45:49.820Z,95629.42
2019-03-15T14:49:51.825Z,95640.84
2019-03-15T14:53:53.720Z,95623.20
2019-03-15T14:58:00.015Z,95626.97
2019-03-15T15:02:00.379Z,95646.77
2019-03-15T15:06:02.274Z,95641.80
2019-03-15T15:10:05.925Z,95634.73
2019-03-15T15:14:15.848Z,95627.34
2019-03-15T15:18:17.813Z,95630.27
2019-03-15T15:22:19.813Z,95630.85
2019-03-15T15:26:21.696Z,95629.83
2019-03-15T15:30:23.599Z,95617.94
2019-03-15T15:34:25.505Z,95622.97
2019-03-15T15:38:27.432Z,95630.70
2019-03-15T15:42:29.345Z,95629.91
2019-03-15T15:46:31.259Z,95613.56
2019-03-15T15:50:33.160Z,95610.63
2019-03-15T15:54:35.737Z,95633.14
2019-03-15T15:58:37.646Z,95626.81
2019-03-15T16:02:39.552Z,95619.09
2019-03-15T16:06:41.906Z,95622.32
2019-03-15T16:10:43.848Z,95608.31
2019-03-15T16:14:52.437Z,95604.06
2019-03-15T16:18:54.551Z,95617.50
2019-03-15T16:22:56.570Z,95615.14
2019-03-15T16:26:58.502Z,95622.27
2019-03-15T16:31:00.448Z,95627.85
2019-03-15T16:35:02.367Z,95634.17
2019-03-15T16:39:05.825Z,95632.06
2019-03-15T16:43:07.748Z,95641.27
2019-03-15T16:47:09.713Z,95654.78
2019-03-15T16:51:19.506Z,95653.23
2019-03-15T16:55:15.891Z,95655.09
2019-03-15T16:59:17.990Z,95647.44
2019-03-15T17:03:19.917Z,95647.45
2019-03-15T17:07:21.828Z,95644.00
2019-03-15T17:11:23.733Z,95646.36
2019-03-15T17:15:30.118Z,95653.70
2019-03-15T17:19:32.147Z,95660.55
2019-03-15T17:23:34.073Z,95656.34
2019-03-15T17:27:35.965Z,95655.89
2019-03-15T17:31:37.881Z,95652.67
2019-03-15T17:35:39.778Z,95583.88
2019-03-15T17:39:44.044Z,95662.41
2019-03-15T17:43:45.274Z,95646.82
2019-03-15T17:47:47.580Z,95668.00
2019-03-15T17:51:49.481Z,95676.72
2019-03-15T17:55:51.369Z,95679.05
2019-03-15T18:00:19.497Z,95680.09
2019-03-15T18:04:21.399Z,95669.30
2019-03-15T18:08:23.318Z,95677.78
2019-03-15T18:12:25.609Z,95668.55
2019-03-15T18:16:27.534Z,95664.32
2019-03-15T18:20:30.392Z,95667.02
2019-03-15T18:24:32.545Z,95681.00
2019-03-15T18:28:35.732Z,95665.94
2019-03-15T18:32:37.629Z,95661.14
2019-03-15T18:36:42.807Z,95666.75
2019-03-15T18:40:43.394Z,95662.56
2019-03-15T18:44:46.198Z,95671.03
2019-03-15T18:48:48.189Z,95663.81
2019-03-15T18:52:50.183Z,95677.63
2019-03-15T18:56:52.127Z,95689.24
2019-03-15T19:00:54.045Z,95678.66
2019-03-15T19:04:55.961Z,95673.62
2019-03-15T19:08:58.030Z,95664.13
2019-03-15T19:12:59.903Z,95698.25
2019-03-15T19:17:01.809Z,95712.80
2019-03-15T19:21:03.804Z,95707.53
2019-03-15T19:25:08.225Z,95705.94
2019-03-15T19:29:10.123Z,95710.94
2019-03-15T19:33:12.989Z,95723.07
2019-03-15T19:37:14.933Z,95728.12
2019-03-15T19:41:16.835Z,95722.05
2019-03-15T19:45:18.913Z,95707.47
2019-03-15T19:49:20.861Z,95709.09
2019-03-15T19:53:22.743Z,95701.97
2019-03-15T19:57:24.641Z,95716.70
2019-03-15T20:01:28.994Z,95703.47
2019-03-15T20:05:30.187Z,95718.86
2019-03-15T20:09:32.097Z,95702.41
2019-03-15T20:13:34.035Z,95715.97
2019-03-15T20:17:35.953Z,95713.32
2019-03-15T20:21:37.848Z,95732.39
2019-03-15T20:25:39.745Z,95717.37
2019-03-15T20:29:42.622Z,95725.05
2019-03-15T20:33:44.525Z,95726.94
2019-03-15T20:37:46.429Z,95712.64
2019-03-15T20:41:48.407Z,95718.20
2019-03-15T20:45:50.380Z,95734.88
2019-03-15T20:49:52.292Z,95721.91
2019-03-15T20:53:54.189Z,95726.16
2019-03-15T20:57:56.157Z,95725.33
2019-03-15T21:01:58.029Z,95722.14
2019-03-15T21:06:00.000Z,95741.50
2019-03-15T21:10:01.915Z,95743.36
2019-03-15T21:14:03.921Z,95724.55
2019-03-15T21:18:05.808Z,95743.36
2019-03-15T21:22:07.775Z,95727.48
2019-03-15T21:26:09.675Z,95743.59
2019-03-15T21:30:27.523Z,95741.00
2019-03-15T21:34:29.404Z,95747.31
2019-03-15T21:38:31.663Z,95754.48
2019-03-15T21:42:33.626Z,95767.45
2019-03-15T21:46:35.782Z,95766.13
2019-03-15T21:50:37.675Z,95774.89
2019-03-15T21:54:39.611Z,95775.36
2019-03-15T21:58:41.548Z,95755.50
2019-03-15T22:02:43.481Z,95758.67
2019-03-15T22:06:45.374Z,95767.09
2019-03-15T22:10:47.273Z,95758.36
2019-03-15T22:14:49.171Z,95750.73
2019-03-15T22:18:51.080Z,95761.27
2019-03-15T22:22:53.988Z,95765.00
2019-03-15T22:26:55.895Z,95771.61
2019-03-15T22:30:57.797Z,95758.38
2019-03-15T22:34:59.689Z,95767.09
2019-03-15T22:39:01.670Z,95742.42
2019-03-15T22:43:04.949Z,95756.75
2019-03-15T22:47:06.865Z,95746.17
2019-03-15T22:51:08.757Z,95771.89
2019-03-15T22:55:11.865Z,95759.23
2019-03-15T22:59:13.767Z,95766.62
2019-03-15T23:03:15.690Z,95776.70
2019-03-15T23:07:17.622Z,95778.00
2019-03-15T23:11:19.520Z,95783.55
2019-03-15T23:15:21.429Z,95789.11
2019-03-15T23:19:23.657Z,95758.43
2019-03-15T23:23:25.550Z,95771.95
2019-03-15T23:27:28.522Z,95755.00
2019-03-15T23:31:42.632Z,95766.31
2019-03-15T23:35:34.015Z,95774.28
2019-03-15T23:39:35.955Z,95772.93
2019-03-15T23:43:37.853Z,95773.50
2019-03-15T23:47:39.826Z,95788.32
2019-03-15T23:51:41.725Z,95806.30
2019-03-15T23:55:43.619Z,95781.95
2019-03-15T23:59:45.546Z,95811.84
